sensor_id;sensor_type;location;lat;lon;timestamp;P1;durP1;ratioP1;P2;durP2;ratioP2
58643;SDS011;44411;49.994;8.660;2022-12-29T00:01:35;6.05;;;3.15;;
58643;SDS011;44411;49.994;8.660;2022-12-29T00:04:01;5.38;;;3.10;;
58643;SDS011;44411;49.994;8.660;2022-12-29T00:06:26;6.30;;;3.30;;
58643;SDS011;44411;49.994;8.660;2022-12-29T00:08:52;5.90;;;2.95;;
58643;SDS011;44411;49.994;8.660;2022-12-29T00:11:19;7.25;;;2.83;;
58643;SDS011;44411;49.994;8.660;2022-12-29T00:13:46;6.22;;;3.40;;
58643;SDS011;44411;49.994;8.660;2022-12-29T00:16:31;6.15;;;2.97;;
58643;SDS011;44411;49.994;8.660;2022-12-29T00:18:57;6.25;;;3.20;;
58643;SDS011;44411;49.994;8.660;2022-12-29T00:21:24;6.38;;;3.22;;
58643;SDS011;44411;49.994;8.660;2022-12-29T00:24:13;5.38;;;2.65;;
58643;SDS011;44411;49.994;8.660;2022-12-29T00:29:46;4.88;;;2.50;;
58643;SDS011;44411;49.994;8.660;2022-12-29T00:32:30;4.93;;;2.80;;
58643;SDS011;44411;49.994;8.660;2022-12-29T00:35:19;4.57;;;2.58;;
58643;SDS011;44411;49.994;8.660;2022-12-29T00:37:59;7.85;;;3.03;;
58643;SDS011;44411;49.994;8.660;2022-12-29T00:40:47;5.05;;;2.63;;
58643;SDS011;44411;49.994;8.660;2022-12-29T00:43:31;6.10;;;2.70;;
58643;SDS011;44411;49.994;8.660;2022-12-29T00:46:15;6.10;;;3.30;;
58643;SDS011;44411;49.994;8.660;2022-12-29T00:48:40;5.07;;;2.60;;
58643;SDS011;44411;49.994;8.660;2022-12-29T00:51:24;5.80;;;2.42;;
58643;SDS011;44411;49.994;8.660;2022-12-29T00:53:50;5.68;;;2.58;;
58643;SDS011;44411;49.994;8.660;2022-12-29T00:56:15;3.60;;;2.10;;
58643;SDS011;44411;49.994;8.660;2022-12-29T00:58:40;5.22;;;2.33;;
58643;SDS011;44411;49.994;8.660;2022-12-29T01:01:07;4.97;;;2.60;;
58643;SDS011;44411;49.994;8.660;2022-12-29T01:03:34;5.93;;;2.47;;
58643;SDS011;44411;49.994;8.660;2022-12-29T01:06:01;6.65;;;2.60;;
58643;SDS011;44411;49.994;8.660;2022-12-29T01:08:31;5.47;;;2.50;;
58643;SDS011;44411;49.994;8.660;2022-12-29T01:11:05;4.53;;;2.38;;
58643;SDS011;44411;49.994;8.660;2022-12-29T01:13:32;5.28;;;2.25;;
58643;SDS011;44411;49.994;8.660;2022-12-29T01:15:58;5.15;;;2.53;;
58643;SDS011;44411;49.994;8.660;2022-12-29T01:18:24;4.53;;;2.42;;
58643;SDS011;44411;49.994;8.660;2022-12-29T01:20:51;4.97;;;1.95;;
58643;SDS011;44411;49.994;8.660;2022-12-29T01:23:22;5.78;;;2.30;;
58643;SDS011;44411;49.994;8.660;2022-12-29T01:25:48;5.18;;;1.92;;
58643;SDS011;44411;49.994;8.660;2022-12-29T01:28:13;4.43;;;1.92;;
58643;SDS011;44411;49.994;8.660;2022-12-29T06:02:24;4.03;;;1.35;;
58643;SDS011;44411;49.994;8.660;2022-12-29T06:04:49;2.78;;;1.30;;
58643;SDS011;44411;49.994;8.660;2022-12-29T06:07:15;2.38;;;1.20;;
58643;SDS011;44411;49.994;8.660;2022-12-29T06:09:40;3.42;;;1.80;;
58643;SDS011;44411;49.994;8.660;2022-12-29T06:12:06;3.40;;;1.60;;
58643;SDS011;44411;49.994;8.660;2022-12-29T06:14:31;3.90;;;1.52;;
58643;SDS011;44411;49.994;8.660;2022-12-29T06:16:56;4.85;;;1.85;;
58643;SDS011;44411;49.994;8.660;2022-12-29T06:19:22;2.85;;;1.55;;
58643;SDS011;44411;49.994;8.660;2022-12-29T06:21:47;3.15;;;1.50;;
58643;SDS011;44411;49.994;8.660;2022-12-29T06:24:12;6.63;;;1.52;;
58643;SDS011;44411;49.994;8.660;2022-12-29T06:26:38;6.03;;;1.40;;
58643;SDS011;44411;49.994;8.660;2022-12-29T06:29:05;10.23;;;2.20;;
58643;SDS011;44411;49.994;8.660;2022-12-29T06:31:31;3.28;;;1.48;;
58643;SDS011;44411;49.994;8.660;2022-12-29T06:33:57;3.22;;;1.35;;
58643;SDS011;44411;49.994;8.660;2022-12-29T06:36:22;3.72;;;1.50;;
58643;SDS011;44411;49.994;8.660;2022-12-29T06:38:48;3.90;;;1.40;;
58643;SDS011;44411;49.994;8.660;2022-12-29T06:41:13;4.70;;;1.70;;
58643;SDS011;44411;49.994;8.660;2022-12-29T06:43:39;3.33;;;1.55;;
58643;SDS011;44411;49.994;8.660;2022-12-29T06:46:04;7.68;;;2.13;;
58643;SDS011;44411;49.994;8.660;2022-12-29T06:48:30;5.55;;;1.88;;
58643;SDS011;44411;49.994;8.660;2022-12-29T06:50:55;3.70;;;1.77;;
58643;SDS011;44411;49.994;8.660;2022-12-29T06:53:21;3.00;;;1.55;;
58643;SDS011;44411;49.994;8.660;2022-12-29T06:55:46;5.95;;;2.10;;
58643;SDS011;44411;49.994;8.660;2022-12-29T06:58:11;5.22;;;1.88;;
58643;SDS011;44411;49.994;8.660;2022-12-29T07:00:37;6.20;;;2.22;;
58643;SDS011;44411;49.994;8.660;2022-12-29T07:03:02;4.00;;;2.00;;
58643;SDS011;44411;49.994;8.660;2022-12-29T07:05:27;4.18;;;1.90;;
58643;SDS011;44411;49.994;8.660;2022-12-29T07:07:53;4.80;;;2.20;;
58643;SDS011;44411;49.994;8.660;2022-12-29T07:10:19;4.50;;;2.10;;
58643;SDS011;44411;49.994;8.660;2022-12-29T07:12:45;4.65;;;2.03;;
58643;SDS011;44411;49.994;8.660;2022-12-29T07:15:10;6.65;;;2.20;;
58643;SDS011;44411;49.994;8.660;2022-12-29T07:17:35;4.22;;;2.00;;
58643;SDS011;44411;49.994;8.660;2022-12-29T07:20:00;6.45;;;1.95;;
58643;SDS011;44411;49.994;8.660;2022-12-29T07:22:26;4.00;;;1.95;;
58643;SDS011;44411;49.994;8.660;2022-12-29T07:24:51;4.50;;;2.13;;
58643;SDS011;44411;49.994;8.660;2022-12-29T07:27:16;5.45;;;2.22;;
58643;SDS011;44411;49.994;8.660;2022-12-29T07:29:42;4.32;;;2.40;;
58643;SDS011;44411;49.994;8.660;2022-12-29T07:32:07;6.10;;;2.17;;
58643;SDS011;44411;49.994;8.660;2022-12-29T07:34:33;4.72;;;1.95;;
58643;SDS011;44411;49.994;8.660;2022-12-29T07:36:58;4.75;;;2.10;;
58643;SDS011;44411;49.994;8.660;2022-12-29T07:39:23;3.80;;;1.98;;
58643;SDS011;44411;49.994;8.660;2022-12-29T07:41:48;4.60;;;2.05;;
58643;SDS011;44411;49.994;8.660;2022-12-29T07:44:14;6.18;;;2.17;;
58643;SDS011;44411;49.994;8.660;2022-12-29T07:46:39;4.03;;;1.70;;
58643;SDS011;44411;49.994;8.660;2022-12-29T07:49:04;6.88;;;2.15;;
58643;SDS011;44411;49.994;8.660;2022-12-29T07:51:30;4.45;;;2.17;;
58643;SDS011;44411;49.994;8.660;2022-12-29T07:53:56;6.30;;;2.30;;
58643;SDS011;44411;49.994;8.660;2022-12-29T07:56:21;9.23;;;2.83;;
58643;SDS011;44411;49.994;8.660;2022-12-29T07:58:47;10.02;;;2.40;;
58643;SDS011;44411;49.994;8.660;2022-12-29T08:01:12;6.10;;;2.67;;
58643;SDS011;44411;49.994;8.660;2022-12-29T08:03:37;4.68;;;2.13;;
58643;SDS011;44411;49.994;8.660;2022-12-29T08:06:04;5.25;;;2.40;;
58643;SDS011;44411;49.994;8.660;2022-12-29T08:08:30;7.15;;;2.45;;
58643;SDS011;44411;49.994;8.660;2022-12-29T08:10:55;4.65;;;2.45;;
58643;SDS011;44411;49.994;8.660;2022-12-29T08:13:20;5.47;;;2.17;;
58643;SDS011;44411;49.994;8.660;2022-12-29T08:15:45;5.22;;;2.17;;
58643;SDS011;44411;49.994;8.660;2022-12-29T08:18:11;4.68;;;2.20;;
58643;SDS011;44411;49.994;8.660;2022-12-29T08:20:36;5.13;;;2.00;;
58643;SDS011;44411;49.994;8.660;2022-12-29T08:23:01;5.15;;;2.13;;
58643;SDS011;44411;49.994;8.660;2022-12-29T08:25:27;6.72;;;2.80;;
58643;SDS011;44411;49.994;8.660;2022-12-29T08:27:52;8.88;;;2.35;;
58643;SDS011;44411;49.994;8.660;2022-12-29T08:30:17;8.23;;;2.78;;
58643;SDS011;44411;49.994;8.660;2022-12-29T08:32:43;5.18;;;2.30;;
58643;SDS011;44411;49.994;8.660;2022-12-29T08:35:08;5.50;;;2.40;;
58643;SDS011;44411;49.994;8.660;2022-12-29T08:37:34;6.78;;;2.28;;
58643;SDS011;44411;49.994;8.660;2022-12-29T08:40:00;5.32;;;2.30;;
58643;SDS011;44411;49.994;8.660;2022-12-29T08:42:28;6.63;;;2.70;;
58643;SDS011;44411;49.994;8.660;2022-12-29T08:44:56;7.75;;;2.63;;
58643;SDS011;44411;49.994;8.660;2022-12-29T08:47:22;8.38;;;2.78;;
58643;SDS011;44411;49.994;8.660;2022-12-29T08:49:47;6.70;;;2.60;;
58643;SDS011;44411;49.994;8.660;2022-12-29T08:52:12;5.65;;;2.70;;
58643;SDS011;44411;49.994;8.660;2022-12-29T08:54:38;8.05;;;3.10;;
58643;SDS011;44411;49.994;8.660;2022-12-29T08:57:04;6.07;;;2.80;;
58643;SDS011;44411;49.994;8.660;2022-12-29T08:59:30;6.63;;;2.45;;
58643;SDS011;44411;49.994;8.660;2022-12-29T09:01:55;6.43;;;2.40;;
58643;SDS011;44411;49.994;8.660;2022-12-29T09:04:20;4.38;;;2.53;;
58643;SDS011;44411;49.994;8.660;2022-12-29T09:06:46;5.20;;;2.65;;
58643;SDS011;44411;49.994;8.660;2022-12-29T09:09:11;5.82;;;2.45;;
58643;SDS011;44411;49.994;8.660;2022-12-29T09:11:37;4.75;;;2.25;;
58643;SDS011;44411;49.994;8.660;2022-12-29T09:14:03;5.47;;;2.70;;
58643;SDS011;44411;49.994;8.660;2022-12-29T09:16:28;7.78;;;2.97;;
58643;SDS011;44411;49.994;8.660;2022-12-29T09:18:54;6.28;;;2.85;;
58643;SDS011;44411;49.994;8.660;2022-12-29T09:21:19;5.57;;;2.72;;
58643;SDS011;44411;49.994;8.660;2022-12-29T09:23:44;6.05;;;3.17;;
58643;SDS011;44411;49.994;8.660;2022-12-29T09:26:10;6.28;;;2.88;;
58643;SDS011;44411;49.994;8.660;2022-12-29T09:28:35;6.90;;;2.60;;
58643;SDS011;44411;49.994;8.660;2022-12-29T09:31:01;6.85;;;2.78;;
58643;SDS011;44411;49.994;8.660;2022-12-29T09:33:27;6.97;;;3.00;;
58643;SDS011;44411;49.994;8.660;2022-12-29T09:35:56;8.50;;;3.17;;
58643;SDS011;44411;49.994;8.660;2022-12-29T09:38:23;6.63;;;2.80;;
58643;SDS011;44411;49.994;8.660;2022-12-29T09:40:51;5.10;;;2.75;;
58643;SDS011;44411;49.994;8.660;2022-12-29T09:52:08;4.30;;;2.50;;
58643;SDS011;44411;49.994;8.660;2022-12-29T09:57:54;5.75;;;3.50;;
58643;SDS011;44411;49.994;8.660;2022-12-29T10:00:38;5.15;;;2.83;;
58643;SDS011;44411;49.994;8.660;2022-12-29T10:03:16;6.75;;;3.75;;
58643;SDS011;44411;49.994;8.660;2022-12-29T10:05:48;7.72;;;4.40;;
58643;SDS011;44411;49.994;8.660;2022-12-29T10:08:25;8.60;;;3.90;;
58643;SDS011;44411;49.994;8.660;2022-12-29T10:10:55;7.30;;;4.55;;
58643;SDS011;44411;49.994;8.660;2022-12-29T10:18:53;10.13;;;5.60;;
58643;SDS011;44411;49.994;8.660;2022-12-29T10:21:40;7.22;;;3.83;;
58643;SDS011;44411;49.994;8.660;2022-12-29T10:24:10;8.98;;;2.80;;
58643;SDS011;44411;49.994;8.660;2022-12-29T10:26:41;4.95;;;3.28;;
58643;SDS011;44411;49.994;8.660;2022-12-29T10:35:00;6.10;;;2.40;;
58643;SDS011;44411;49.994;8.660;2022-12-29T10:40:26;5.43;;;2.58;;
58643;SDS011;44411;49.994;8.660;2022-12-29T10:42:57;7.40;;;3.38;;
58643;SDS011;44411;49.994;8.660;2022-12-29T10:45:24;2.80;;;1.63;;
58643;SDS011;44411;49.994;8.660;2022-12-29T10:47:56;4.13;;;1.88;;
58643;SDS011;44411;49.994;8.660;2022-12-29T10:50:28;6.05;;;2.22;;
58643;SDS011;44411;49.994;8.660;2022-12-29T10:52:54;4.03;;;1.70;;
58643;SDS011;44411;49.994;8.660;2022-12-29T10:55:25;3.72;;;1.95;;
58643;SDS011;44411;49.994;8.660;2022-12-29T10:57:56;5.90;;;3.22;;
58643;SDS011;44411;49.994;8.660;2022-12-29T11:00:29;4.65;;;2.03;;
58643;SDS011;44411;49.994;8.660;2022-12-29T11:08:39;5.20;;;2.25;;
58643;SDS011;44411;49.994;8.660;2022-12-29T11:11:12;5.53;;;2.28;;
58643;SDS011;44411;49.994;8.660;2022-12-29T11:13:49;5.53;;;2.17;;
58643;SDS011;44411;49.994;8.660;2022-12-29T11:16:30;5.13;;;2.00;;
58643;SDS011;44411;49.994;8.660;2022-12-29T11:18:57;5.10;;;2.22;;
58643;SDS011;44411;49.994;8.660;2022-12-29T11:21:26;6.30;;;2.90;;
58643;SDS011;44411;49.994;8.660;2022-12-29T11:26:53;4.93;;;2.28;;
58643;SDS011;44411;49.994;8.660;2022-12-29T11:29:40;4.25;;;2.05;;
58643;SDS011;44411;49.994;8.660;2022-12-29T11:32:17;3.80;;;1.83;;
58643;SDS011;44411;49.994;8.660;2022-12-29T11:34:44;5.07;;;2.03;;
58643;SDS011;44411;49.994;8.660;2022-12-29T11:37:14;4.15;;;1.75;;
58643;SDS011;44411;49.994;8.660;2022-12-29T11:39:55;4.03;;;1.80;;
58643;SDS011;44411;49.994;8.660;2022-12-29T11:42:31;5.37;;;1.77;;
58643;SDS011;44411;49.994;8.660;2022-12-29T11:45:03;4.32;;;1.42;;
58643;SDS011;44411;49.994;8.660;2022-12-29T11:47:31;7.10;;;1.67;;
58643;SDS011;44411;49.994;8.660;2022-12-29T11:50:03;3.90;;;1.55;;
58643;SDS011;44411;49.994;8.660;2022-12-29T11:52:32;4.05;;;1.20;;
58643;SDS011;44411;49.994;8.660;2022-12-29T11:55:02;4.60;;;1.20;;
58643;SDS011;44411;49.994;8.660;2022-12-29T11:57:30;4.55;;;1.33;;
58643;SDS011;44411;49.994;8.660;2022-12-29T11:59:59;4.03;;;1.65;;
58643;SDS011;44411;49.994;8.660;2022-12-29T12:02:42;2.60;;;1.23;;
58643;SDS011;44411;49.994;8.660;2022-12-29T12:08:34;4.60;;;1.35;;
58643;SDS011;44411;49.994;8.660;2022-12-29T12:11:07;5.10;;;2.10;;
58643;SDS011;44411;49.994;8.660;2022-12-29T12:14:05;3.80;;;1.40;;
58643;SDS011;44411;49.994;8.660;2022-12-29T12:17:21;3.22;;;1.40;;
58643;SDS011;44411;49.994;8.660;2022-12-29T12:27:41;4.45;;;1.45;;
58643;SDS011;44411;49.994;8.660;2022-12-29T12:30:13;3.17;;;1.05;;
58643;SDS011;44411;49.994;8.660;2022-12-29T12:38:54;4.03;;;1.50;;
58643;SDS011;44411;49.994;8.660;2022-12-29T12:41:22;4.72;;;1.85;;
58643;SDS011;44411;49.994;8.660;2022-12-29T12:44:01;3.58;;;1.73;;
58643;SDS011;44411;49.994;8.660;2022-12-29T12:49:19;4.05;;;1.50;;
58643;SDS011;44411;49.994;8.660;2022-12-29T12:57:11;4.05;;;1.83;;
58643;SDS011;44411;49.994;8.660;2022-12-29T13:08:30;5.53;;;2.30;;
58643;SDS011;44411;49.994;8.660;2022-12-29T13:11:21;6.70;;;2.60;;
58643;SDS011;44411;49.994;8.660;2022-12-29T13:19:32;3.97;;;1.50;;
58643;SDS011;44411;49.994;8.660;2022-12-29T13:22:13;6.65;;;1.85;;
58643;SDS011;44411;49.994;8.660;2022-12-29T13:25:15;3.40;;;1.65;;
58643;SDS011;44411;49.994;8.660;2022-12-29T13:30:37;4.97;;;2.20;;
58643;SDS011;44411;49.994;8.660;2022-12-29T13:36:24;4.15;;;1.58;;
58643;SDS011;44411;49.994;8.660;2022-12-29T13:41:51;4.95;;;1.55;;
58643;SDS011;44411;49.994;8.660;2022-12-29T13:44:26;2.70;;;1.65;;
58643;SDS011;44411;49.994;8.660;2022-12-29T13:47:00;4.15;;;1.58;;
58643;SDS011;44411;49.994;8.660;2022-12-29T13:49:31;7.18;;;1.92;;
58643;SDS011;44411;49.994;8.660;2022-12-29T13:51:59;3.17;;;1.52;;
58643;SDS011;44411;49.994;8.660;2022-12-29T13:59:46;7.65;;;1.73;;
58643;SDS011;44411;49.994;8.660;2022-12-29T14:05:01;4.72;;;1.55;;
58643;SDS011;44411;49.994;8.660;2022-12-29T14:07:56;6.50;;;1.40;;
58643;SDS011;44411;49.994;8.660;2022-12-29T14:10:34;4.82;;;1.40;;
58643;SDS011;44411;49.994;8.660;2022-12-29T14:13:22;4.82;;;2.10;;
58643;SDS011;44411;49.994;8.660;2022-12-29T14:15:54;6.90;;;1.95;;
58643;SDS011;44411;49.994;8.660;2022-12-29T14:18:24;6.93;;;1.77;;
58643;SDS011;44411;49.994;8.660;2022-12-29T14:21:08;4.70;;;1.88;;
58643;SDS011;44411;49.994;8.660;2022-12-29T14:26:18;8.03;;;1.97;;
58643;SDS011;44411;49.994;8.660;2022-12-29T14:34:51;5.18;;;1.83;;
58643;SDS011;44411;49.994;8.660;2022-12-29T14:39:48;4.03;;;1.73;;
58643;SDS011;44411;49.994;8.660;2022-12-29T14:42:14;3.38;;;1.58;;
58643;SDS011;44411;49.994;8.660;2022-12-29T14:47:22;4.57;;;1.80;;
58643;SDS011;44411;49.994;8.660;2022-12-29T14:49:56;6.40;;;1.65;;
58643;SDS011;44411;49.994;8.660;2022-12-29T14:52:32;4.75;;;1.80;;
58643;SDS011;44411;49.994;8.660;2022-12-29T14:54:59;4.32;;;1.77;;
58643;SDS011;44411;49.994;8.660;2022-12-29T14:58:04;5.60;;;1.52;;
58643;SDS011;44411;49.994;8.660;2022-12-29T15:00:37;4.80;;;1.70;;
58643;SDS011;44411;49.994;8.660;2022-12-29T15:03:04;6.10;;;1.48;;
58643;SDS011;44411;49.994;8.660;2022-12-29T15:05:34;3.92;;;1.33;;
58643;SDS011;44411;49.994;8.660;2022-12-29T15:08:05;5.57;;;1.50;;
58643;SDS011;44411;49.994;8.660;2022-12-29T15:10:34;6.38;;;1.90;;
58643;SDS011;44411;49.994;8.660;2022-12-29T15:13:04;5.55;;;2.00;;
58643;SDS011;44411;49.994;8.660;2022-12-29T15:15:39;6.32;;;1.70;;
58643;SDS011;44411;49.994;8.660;2022-12-29T15:18:15;4.05;;;1.50;;
58643;SDS011;44411;49.994;8.660;2022-12-29T15:20:50;4.38;;;1.42;;
58643;SDS011;44411;49.994;8.660;2022-12-29T15:23:18;4.63;;;1.55;;
58643;SDS011;44411;49.994;8.660;2022-12-29T15:25:53;5.20;;;1.63;;
58643;SDS011;44411;49.994;8.660;2022-12-29T15:28:21;4.75;;;1.40;;
58643;SDS011;44411;49.994;8.660;2022-12-29T15:30:53;4.43;;;1.27;;
58643;SDS011;44411;49.994;8.660;2022-12-29T15:33:22;5.43;;;1.90;;
58643;SDS011;44411;49.994;8.660;2022-12-29T15:35:52;4.38;;;1.40;;
58643;SDS011;44411;49.994;8.660;2022-12-29T15:38:22;8.32;;;2.35;;
58643;SDS011;44411;49.994;8.660;2022-12-29T15:40:53;4.53;;;1.60;;
58643;SDS011;44411;49.994;8.660;2022-12-29T15:43:32;5.40;;;1.60;;
58643;SDS011;44411;49.994;8.660;2022-12-29T15:46:10;5.07;;;1.70;;
58643;SDS011;44411;49.994;8.660;2022-12-29T15:48:37;5.55;;;2.33;;
58643;SDS011;44411;49.994;8.660;2022-12-29T15:51:03;3.85;;;1.92;;
58643;SDS011;44411;49.994;8.660;2022-12-29T15:53:42;4.22;;;1.98;;
58643;SDS011;44411;49.994;8.660;2022-12-29T15:58:44;4.23;;;1.67;;
58643;SDS011;44411;49.994;8.660;2022-12-29T16:01:23;5.18;;;1.92;;
58643;SDS011;44411;49.994;8.660;2022-12-29T16:03:54;4.95;;;1.60;;
58643;SDS011;44411;49.994;8.660;2022-12-29T16:08:57;5.10;;;1.77;;
58643;SDS011;44411;49.994;8.660;2022-12-29T16:11:29;3.42;;;1.45;;
58643;SDS011;44411;49.994;8.660;2022-12-29T16:13:58;4.88;;;1.38;;
58643;SDS011;44411;49.994;8.660;2022-12-29T16:16:28;5.20;;;1.45;;
58643;SDS011;44411;49.994;8.660;2022-12-29T16:18:56;3.53;;;1.48;;
58643;SDS011;44411;49.994;8.660;2022-12-29T16:24:01;5.80;;;1.42;;
58643;SDS011;44411;49.994;8.660;2022-12-29T16:26:30;5.45;;;1.50;;
58643;SDS011;44411;49.994;8.660;2022-12-29T16:28:56;2.83;;;1.52;;
58643;SDS011;44411;49.994;8.660;2022-12-29T16:31:47;5.50;;;1.42;;
58643;SDS011;44411;49.994;8.660;2022-12-29T16:34:23;4.22;;;1.52;;
58643;SDS011;44411;49.994;8.660;2022-12-29T16:39:48;4.68;;;1.95;;
58643;SDS011;44411;49.994;8.660;2022-12-29T16:50:39;6.15;;;1.60;;
58643;SDS011;44411;49.994;8.660;2022-12-29T16:53:06;3.78;;;1.40;;
58643;SDS011;44411;49.994;8.660;2022-12-29T16:55:48;4.28;;;1.13;;
58643;SDS011;44411;49.994;8.660;2022-12-29T16:58:16;4.20;;;1.60;;
58643;SDS011;44411;49.994;8.660;2022-12-29T17:00:46;4.50;;;2.38;;
58643;SDS011;44411;49.994;8.660;2022-12-29T17:03:12;5.43;;;1.83;;
58643;SDS011;44411;49.994;8.660;2022-12-29T17:05:38;4.78;;;1.42;;
58643;SDS011;44411;49.994;8.660;2022-12-29T17:08:12;3.83;;;1.75;;
58643;SDS011;44411;49.994;8.660;2022-12-29T17:10:47;5.18;;;1.92;;
58643;SDS011;44411;49.994;8.660;2022-12-29T17:13:35;5.88;;;1.60;;
58643;SDS011;44411;49.994;8.660;2022-12-29T17:16:01;6.63;;;2.13;;
58643;SDS011;44411;49.994;8.660;2022-12-29T17:18:27;6.72;;;2.08;;
58643;SDS011;44411;49.994;8.660;2022-12-29T17:20:52;5.28;;;2.90;;
58643;SDS011;44411;49.994;8.660;2022-12-29T17:23:17;5.60;;;2.15;;
58643;SDS011;44411;49.994;8.660;2022-12-29T17:25:43;5.63;;;2.03;;
58643;SDS011;44411;49.994;8.660;2022-12-29T17:30:57;7.13;;;2.70;;
58643;SDS011;44411;49.994;8.660;2022-12-29T17:33:26;5.90;;;1.90;;
58643;SDS011;44411;49.994;8.660;2022-12-29T17:35:52;5.72;;;2.08;;
58643;SDS011;44411;49.994;8.660;2022-12-29T17:38:21;5.78;;;1.70;;
58643;SDS011;44411;49.994;8.660;2022-12-29T17:40:51;5.38;;;2.10;;
58643;SDS011;44411;49.994;8.660;2022-12-29T17:43:17;5.28;;;1.85;;
58643;SDS011;44411;49.994;8.660;2022-12-29T17:45:43;6.95;;;2.30;;
58643;SDS011;44411;49.994;8.660;2022-12-29T17:48:14;8.32;;;2.95;;
58643;SDS011;44411;49.994;8.660;2022-12-29T17:50:41;8.32;;;2.30;;
58643;SDS011;44411;49.994;8.660;2022-12-29T17:53:24;4.63;;;2.20;;
58643;SDS011;44411;49.994;8.660;2022-12-29T17:55:52;6.05;;;1.98;;
58643;SDS011;44411;49.994;8.660;2022-12-29T17:58:22;7.97;;;1.83;;
58643;SDS011;44411;49.994;8.660;2022-12-29T18:00:53;9.05;;;2.20;;
58643;SDS011;44411;49.994;8.660;2022-12-29T18:03:24;4.13;;;2.03;;
58643;SDS011;44411;49.994;8.660;2022-12-29T18:05:53;6.95;;;2.28;;
58643;SDS011;44411;49.994;8.660;2022-12-29T18:08:18;7.35;;;2.25;;
58643;SDS011;44411;49.994;8.660;2022-12-29T18:10:43;7.70;;;2.47;;
58643;SDS011;44411;49.994;8.660;2022-12-29T18:13:15;4.47;;;1.90;;
58643;SDS011;44411;49.994;8.660;2022-12-29T18:15:48;7.35;;;2.83;;
58643;SDS011;44411;49.994;8.660;2022-12-29T18:18:15;6.53;;;2.50;;
58643;SDS011;44411;49.994;8.660;2022-12-29T18:20:43;7.25;;;2.72;;
58643;SDS011;44411;49.994;8.660;2022-12-29T18:23:15;7.32;;;2.47;;
58643;SDS011;44411;49.994;8.660;2022-12-29T18:25:45;7.80;;;2.70;;
58643;SDS011;44411;49.994;8.660;2022-12-29T18:28:15;9.05;;;3.00;;
58643;SDS011;44411;49.994;8.660;2022-12-29T18:30:40;11.38;;;2.90;;
58643;SDS011;44411;49.994;8.660;2022-12-29T18:33:08;9.13;;;2.78;;
58643;SDS011;44411;49.994;8.660;2022-12-29T18:35:39;7.47;;;2.67;;
58643;SDS011;44411;49.994;8.660;2022-12-29T18:38:08;7.50;;;3.03;;
58643;SDS011;44411;49.994;8.660;2022-12-29T18:40:34;8.60;;;2.80;;
58643;SDS011;44411;49.994;8.660;2022-12-29T18:43:00;8.48;;;3.13;;
58643;SDS011;44411;49.994;8.660;2022-12-29T18:45:26;8.40;;;2.50;;
58643;SDS011;44411;49.994;8.660;2022-12-29T18:47:54;6.28;;;2.10;;
58643;SDS011;44411;49.994;8.660;2022-12-29T18:50:19;9.32;;;3.13;;
58643;SDS011;44411;49.994;8.660;2022-12-29T18:52:44;9.77;;;2.50;;
58643;SDS011;44411;49.994;8.660;2022-12-29T18:55:14;8.60;;;2.80;;
58643;SDS011;44411;49.994;8.660;2022-12-29T18:57:42;7.43;;;2.20;;
58643;SDS011;44411;49.994;8.660;2022-12-29T19:00:09;7.78;;;2.88;;
58643;SDS011;44411;49.994;8.660;2022-12-29T19:02:35;7.10;;;2.38;;
58643;SDS011;44411;49.994;8.660;2022-12-29T19:05:00;11.63;;;3.05;;
58643;SDS011;44411;49.994;8.660;2022-12-29T19:07:26;7.50;;;2.60;;
58643;SDS011;44411;49.994;8.660;2022-12-29T19:09:52;13.98;;;4.45;;
58643;SDS011;44411;49.994;8.660;2022-12-29T19:12:17;10.18;;;3.10;;
58643;SDS011;44411;49.994;8.660;2022-12-29T19:14:43;9.52;;;3.00;;
58643;SDS011;44411;49.994;8.660;2022-12-29T19:17:12;7.32;;;3.13;;
58643;SDS011;44411;49.994;8.660;2022-12-29T19:19:38;8.65;;;2.47;;
58643;SDS011;44411;49.994;8.660;2022-12-29T19:22:04;10.70;;;3.00;;
58643;SDS011;44411;49.994;8.660;2022-12-29T19:24:30;9.43;;;3.17;;
58643;SDS011;44411;49.994;8.660;2022-12-29T19:26:55;7.38;;;2.53;;
58643;SDS011;44411;49.994;8.660;2022-12-29T19:29:20;7.25;;;2.70;;
58643;SDS011;44411;49.994;8.660;2022-12-29T19:31:46;9.50;;;3.30;;
58643;SDS011;44411;49.994;8.660;2022-12-29T19:34:12;11.85;;;3.78;;
58643;SDS011;44411;49.994;8.660;2022-12-29T19:36:39;13.18;;;4.43;;
58643;SDS011;44411;49.994;8.660;2022-12-29T19:39:05;7.80;;;3.05;;
58643;SDS011;44411;49.994;8.660;2022-12-29T19:41:30;7.15;;;3.85;;
58643;SDS011;44411;49.994;8.660;2022-12-29T19:43:56;9.82;;;2.83;;
58643;SDS011;44411;49.994;8.660;2022-12-29T19:46:21;7.35;;;2.40;;
58643;SDS011;44411;49.994;8.660;2022-12-29T19:48:47;9.77;;;3.22;;
58643;SDS011;44411;49.994;8.660;2022-12-29T19:51:13;6.63;;;2.67;;
58643;SDS011;44411;49.994;8.660;2022-12-29T19:53:41;10.13;;;2.92;;
58643;SDS011;44411;49.994;8.660;2022-12-29T19:56:07;8.18;;;2.90;;
58643;SDS011;44411;49.994;8.660;2022-12-29T19:58:33;8.18;;;2.95;;
58643;SDS011;44411;49.994;8.660;2022-12-29T20:01:07;10.23;;;3.63;;
58643;SDS011;44411;49.994;8.660;2022-12-29T20:03:38;8.60;;;3.13;;
58643;SDS011;44411;49.994;8.660;2022-12-29T20:06:05;7.82;;;3.22;;
58643;SDS011;44411;49.994;8.660;2022-12-29T20:08:31;7.88;;;2.80;;
58643;SDS011;44411;49.994;8.660;2022-12-29T20:10:57;9.27;;;2.78;;
58643;SDS011;44411;49.994;8.660;2022-12-29T20:13:24;11.68;;;3.20;;
58643;SDS011;44411;49.994;8.660;2022-12-29T20:15:50;9.30;;;2.58;;
58643;SDS011;44411;49.994;8.660;2022-12-29T20:18:15;10.82;;;3.08;;
58643;SDS011;44411;49.994;8.660;2022-12-29T20:20:41;10.13;;;3.85;;
58643;SDS011;44411;49.994;8.660;2022-12-29T20:23:06;13.77;;;3.20;;
58643;SDS011;44411;49.994;8.660;2022-12-29T20:25:32;11.43;;;3.70;;
58643;SDS011;44411;49.994;8.660;2022-12-29T20:27:57;9.75;;;3.22;;
58643;SDS011;44411;49.994;8.660;2022-12-29T20:30:22;8.73;;;3.80;;
58643;SDS011;44411;49.994;8.660;2022-12-29T20:32:49;9.48;;;4.10;;
58643;SDS011;44411;49.994;8.660;2022-12-29T20:35:15;7.90;;;3.97;;
58643;SDS011;44411;49.994;8.660;2022-12-29T20:37:41;12.15;;;4.55;;
58643;SDS011;44411;49.994;8.660;2022-12-29T20:40:06;10.40;;;4.68;;
58643;SDS011;44411;49.994;8.660;2022-12-29T20:42:32;11.43;;;4.78;;
58643;SDS011;44411;49.994;8.660;2022-12-29T20:44:58;9.55;;;4.70;;
58643;SDS011;44411;49.994;8.660;2022-12-29T20:47:25;8.18;;;3.90;;
58643;SDS011;44411;49.994;8.660;2022-12-29T20:49:51;8.00;;;4.03;;
58643;SDS011;44411;49.994;8.660;2022-12-29T20:52:16;8.70;;;4.57;;
58643;SDS011;44411;49.994;8.660;2022-12-29T20:54:43;13.63;;;5.32;;
58643;SDS011;44411;49.994;8.660;2022-12-29T20:57:09;9.25;;;4.90;;
58643;SDS011;44411;49.994;8.660;2022-12-29T20:59:35;9.38;;;4.22;;
58643;SDS011;44411;49.994;8.660;2022-12-29T21:02:00;11.98;;;4.68;;
58643;SDS011;44411;49.994;8.660;2022-12-29T21:04:26;12.45;;;4.88;;
58643;SDS011;44411;49.994;8.660;2022-12-29T21:06:51;9.65;;;4.30;;
58643;SDS011;44411;49.994;8.660;2022-12-29T21:09:17;7.65;;;4.57;;
58643;SDS011;44411;49.994;8.660;2022-12-29T21:11:44;15.57;;;5.10;;
58643;SDS011;44411;49.994;8.660;2022-12-29T21:14:10;8.05;;;4.25;;
58643;SDS011;44411;49.994;8.660;2022-12-29T21:16:35;14.35;;;6.07;;
58643;SDS011;44411;49.994;8.660;2022-12-29T21:19:01;10.32;;;4.93;;
58643;SDS011;44411;49.994;8.660;2022-12-29T21:21:26;10.43;;;4.40;;
58643;SDS011;44411;49.994;8.660;2022-12-29T21:23:51;9.35;;;4.45;;
58643;SDS011;44411;49.994;8.660;2022-12-29T21:26:20;11.10;;;4.10;;
58643;SDS011;44411;49.994;8.660;2022-12-29T21:28:47;11.70;;;4.25;;
58643;SDS011;44411;49.994;8.660;2022-12-29T21:31:22;8.77;;;4.13;;
58643;SDS011;44411;49.994;8.660;2022-12-29T21:33:48;9.55;;;3.88;;
58643;SDS011;44411;49.994;8.660;2022-12-29T21:36:14;13.55;;;4.57;;
58643;SDS011;44411;49.994;8.660;2022-12-29T21:38:40;7.15;;;3.83;;
58643;SDS011;44411;49.994;8.660;2022-12-29T21:41:09;10.27;;;4.00;;